Time;durP1;ratioP1;P1;durP2;ratioP2;P2;SDS_P1;SDS_P2;PMS_P1;PMS_P2;Temp;Humidity;BMP_temperature;BMP_pressure;BME280_temperature;BME280_humidity;BME280_pressure;Samples;Min_cycle;Max_cycle;Signal;HPM_P1;HPM_P2
2024/04/04 00:01:58;;;;;;;19.10;3.20;;;;;;;8.19;100.00;100566.84;5041631;28;20021;-70
2024/04/04 00:04:23;;;;;;;16.85;3.30;;;;;;;8.28;100.00;100563.41;5044396;28;20048;-74
2024/04/04 00:06:49;;;;;;;16.05;2.90;;;;;;;8.30;100.00;100564.34;5042371;28;20040;-68
2024/04/04 00:09:14;;;;;;;17.35;3.00;;;;;;;8.35;100.00;100564.38;5043059;28;20108;-67
2024/04/04 00:11:40;;;;;;;15.77;2.80;;;;;;;8.37;100.00;100558.25;5044099;28;20017;-67
2024/04/04 00:14:06;;;;;;;17.40;3.00;;;;;;;8.43;100.00;100561.78;5041586;28;20100;-66
2024/04/04 00:16:35;;;;;;;17.17;3.20;;;;;;;8.38;100.00;100560.00;5044908;28;20387;-68
2024/04/04 00:19:00;;;;;;;16.48;3.13;;;;;;;8.45;100.00;100555.72;5037772;28;20132;-67
2024/04/04 00:21:26;;;;;;;17.05;3.10;;;;;;;8.49;100.00;100548.69;5043126;28;20503;-66
2024/04/04 00:23:51;;;;;;;16.05;3.22;;;;;;;8.54;100.00;100557.53;5041756;28;20116;-67
2024/04/04 00:26:16;;;;;;;16.02;2.90;;;;;;;8.61;100.00;100543.53;5041949;28;20109;-66
2024/04/04 00:28:42;;;;;;;13.95;2.75;;;;;;;8.67;100.00;100543.59;5043133;28;20083;-67
2024/04/04 00:31:08;;;;;;;16.90;3.08;;;;;;;8.58;100.00;100535.63;5041613;28;20033;-68
2024/04/04 00:33:33;;;;;;;14.77;3.00;;;;;;;8.28;100.00;100537.09;5044680;28;20376;-70
2024/04/04 00:35:58;;;;;;;17.95;3.05;;;;;;;8.01;100.00;100535.09;5040909;28;20037;-68
2024/04/04 00:38:24;;;;;;;14.93;3.10;;;;;;;7.93;100.00;100539.38;5042891;28;20041;-70
2024/04/04 00:40:49;;;;;;;15.07;3.03;;;;;;;7.95;100.00;100540.28;5041996;28;20510;-68
2024/04/04 00:43:14;;;;;;;16.67;2.88;;;;;;;8.10;100.00;100531.66;5042684;28;20049;-71
2024/04/04 00:45:40;;;;;;;18.83;3.15;;;;;;;8.20;100.00;100536.16;5043385;28;20029;-69
2024/04/04 00:48:06;;;;;;;12.85;2.63;;;;;;;8.29;100.00;100523.06;5040021;28;20034;-68
2024/04/04 00:50:32;;;;;;;16.17;2.88;;;;;;;8.40;100.00;100527.53;5044289;28;20037;-70
2024/04/04 00:52:58;;;;;;;15.52;2.85;;;;;;;8.44;100.00;100518.78;5036908;28;20041;-67
2024/04/04 00:55:23;;;;;;;17.02;2.92;;;;;;;8.49;100.00;100503.91;5043672;28;20101;-70
2024/04/04 00:57:51;;;;;;;15.95;2.85;;;;;;;8.54;100.00;100504.84;5042115;28;20029;-68
2024/04/04 01:00:16;;;;;;;16.45;2.72;;;;;;;8.55;100.00;100504.84;5042781;28;20064;-67
2024/04/04 01:02:41;;;;;;;15.93;2.90;;;;;;;8.62;100.00;100494.34;5042754;28;20439;-67
2024/04/04 01:05:07;;;;;;;15.98;2.65;;;;;;;8.65;100.00;100492.63;5041272;28;20030;-66
2024/04/04 01:07:35;;;;;;;14.00;2.63;;;;;;;8.69;100.00;100480.34;5044479;28;20112;-70
2024/04/04 01:10:07;;;;;;;17.13;2.97;;;;;;;8.73;100.00;100480.38;5037016;28;20061;-73
2024/04/04 01:12:33;;;;;;;18.25;3.20;;;;;;;8.71;100.00;100474.22;5037249;28;20033;-68
2024/04/04 01:14:59;;;;;;;15.27;3.00;;;;;;;8.73;100.00;100471.59;5044204;28;20028;-70
2024/04/04 01:17:24;;;;;;;13.32;2.75;;;;;;;8.71;100.00;100468.94;5040983;28;20041;-67
2024/04/04 01:19:51;;;;;;;15.30;2.90;;;;;;;8.75;100.00;100461.06;5042758;28;20087;-69
2024/04/04 01:22:16;;;;;;;12.63;2.90;;;;;;;8.73;100.00;100454.00;5045878;28;20530;-70
2024/04/04 01:24:42;;;;;;;14.32;2.83;;;;;;;8.72;100.00;100454.00;5045447;28;20041;-68
2024/04/04 01:27:08;;;;;;;17.75;3.10;;;;;;;8.70;100.00;100450.50;5047748;28;20083;-67
2024/04/04 01:29:34;;;;;;;12.68;2.78;;;;;;;8.70;100.00;100448.72;5048116;28;20099;-67
2024/04/04 01:31:59;;;;;;;16.83;2.90;;;;;;;8.68;100.00;100441.72;5044657;28;20021;-67
2024/04/04 01:34:24;;;;;;;15.25;2.80;;;;;;;8.68;100.00;100445.22;5047187;28;20105;-66
2024/04/04 01:36:50;;;;;;;16.90;3.28;;;;;;;8.69;100.00;100439.09;5044291;28;20112;-67
2024/04/04 01:39:15;;;;;;;14.43;2.88;;;;;;;8.68;100.00;100437.31;5045769;28;20053;-68
2024/04/04 01:41:43;;;;;;;15.70;3.00;;;;;;;8.68;100.00;100436.44;5046621;28;20029;-67
2024/04/04 01:44:09;;;;;;;15.13;3.05;;;;;;;8.68;100.00;100441.72;5047020;28;20047;-69
2024/04/04 01:46:34;;;;;;;15.73;3.00;;;;;;;8.67;100.00;100435.53;5044058;28;20030;-69
2024/04/04 01:48:59;;;;;;;12.93;2.95;;;;;;;8.71;100.00;100434.69;5047628;28;20025;-67
2024/04/04 01:51:25;;;;;;;11.88;2.67;;;;;;;8.71;100.00;100433.81;5044598;28;20092;-67
2024/04/04 01:53:50;;;;;;;14.23;2.88;;;;;;;8.70;100.00;100430.28;5044907;28;20423;-68
2024/04/04 01:56:16;;;;;;;15.77;3.03;;;;;;;8.65;100.00;100420.59;5045611;28;20079;-68
2024/04/04 01:58:41;;;;;;;16.85;3.17;;;;;;;8.57;100.00;100431.09;5045073;28;20385;-68
2024/04/04 02:01:06;;;;;;;14.20;2.90;;;;;;;8.57;100.00;100427.59;5046756;28;20082;-69
2024/04/04 02:03:32;;;;;;;14.68;3.13;;;;;;;8.58;100.00;100424.06;5043643;28;20054;-68
2024/04/04 02:05:57;;;;;;;16.48;3.03;;;;;;;8.53;100.00;100422.31;5046778;28;20149;-67
2024/04/04 02:08:23;;;;;;;15.00;3.00;;;;;;;8.52;100.00;100422.28;5044306;28;20366;-66
2024/04/04 02:10:48;;;;;;;15.07;3.00;;;;;;;8.47;100.00;100421.38;5045781;28;20033;-66
2024/04/04 02:13:14;;;;;;;13.55;3.10;;;;;;;8.28;100.00;100410.66;5045493;28;20021;-67
2024/04/04 02:15:41;;;;;;;15.10;3.03;;;;;;;8.22;100.00;100410.63;5043029;28;20030;-67
2024/04/04 02:18:06;;;;;;;14.70;3.13;;;;;;;8.02;100.00;100406.13;5046902;28;20037;-67
2024/04/04 02:20:32;;;;;;;12.25;3.00;;;;;;;7.98;100.00;100403.44;5043562;28;20026;-67
2024/04/04 02:22:58;;;;;;;15.35;3.30;;;;;;;7.93;100.00;100399.91;5045467;28;20029;-67
2024/04/04 02:25:23;;;;;;;16.52;3.15;;;;;;;7.86;100.00;100401.56;5042708;28;20037;-66
2024/04/04 02:27:49;;;;;;;15.40;3.42;;;;;;;7.86;100.00;100393.69;5045565;28;20042;-67
2024/04/04 02:30:14;;;;;;;17.77;3.60;;;;;;;7.83;100.00;100391.03;5045521;28;20441;-68
2024/04/04 02:32:40;;;;;;;17.92;3.60;;;;;;;7.85;100.00;100386.69;5044115;28;20390;-67
2024/04/04 02:35:05;;;;;;;16.52;3.40;;;;;;;7.81;100.00;100382.25;5046271;28;20379;-66
2024/04/04 02:37:31;;;;;;;17.85;3.70;;;;;;;7.80;100.00;100372.59;5042126;28;20034;-70
2024/04/04 02:39:57;;;;;;;17.20;3.90;;;;;;;7.77;100.00;100377.81;5045114;28;20112;-73
2024/04/04 02:42:22;;;;;;;18.70;4.13;;;;;;;7.80;100.00;100372.59;5043796;28;20083;-74
2024/04/04 02:44:47;;;;;;;20.95;4.47;;;;;;;7.78;100.00;100366.44;5044884;28;20033;-73
2024/04/04 02:47:13;;;;;;;18.77;4.35;;;;;;;7.78;100.00;100361.19;5043838;28;20079;-65
2024/04/04 02:49:38;;;;;;;18.55;4.40;;;;;;;7.77;100.00;100356.78;5043503;28;20075;-66
2024/04/04 02:52:04;;;;;;;18.05;4.45;;;;;;;7.78;100.00;100359.41;5046515;28;20507;-71
2024/04/04 02:54:29;;;;;;;20.13;4.88;;;;;;;7.79;100.00;100347.13;5039055;28;20029;-65
2024/04/04 02:56:55;;;;;;;17.65;4.78;;;;;;;7.81;100.00;100351.53;5045783;28;20423;-66
2024/04/04 02:59:20;;;;;;;19.92;4.80;;;;;;;7.82;100.00;100344.53;5044102;28;20369;-69
2024/04/04 03:01:45;;;;;;;20.98;5.18;;;;;;;7.83;100.00;100338.41;5044063;28;20560;-69
2024/04/04 03:04:11;;;;;;;18.20;5.05;;;;;;;7.84;100.00;100337.53;5043431;28;20511;-66
2024/04/04 03:06:36;;;;;;;20.27;5.18;;;;;;;7.88;100.00;100341.06;5043002;28;20171;-66
2024/04/04 03:09:08;;;;;;;19.10;5.00;;;;;;;7.89;100.00;100332.31;5046078;28;20071;-66
2024/04/04 03:11:34;;;;;;;19.15;5.30;;;;;;;7.88;100.00;100331.44;5039004;28;20034;-66
2024/04/04 03:14:00;;;;;;;21.58;5.68;;;;;;;7.90;100.00;100329.69;5038495;28;20040;-72
2024/04/04 03:16:25;;;;;;;20.20;6.28;;;;;;;7.91;100.00;100320.91;5045203;28;20120;-67
2024/04/04 03:18:50;;;;;;;22.55;8.80;;;;;;;7.93;100.00;100315.66;5043649;28;20040;-68
2024/04/04 03:21:16;;;;;;;24.60;11.82;;;;;;;7.95;100.00;100316.53;5043883;28;20061;-70
2024/04/04 03:23:41;;;;;;;25.42;11.57;;;;;;;7.96;100.00;100307.78;5044796;28;20037;-71
2024/04/04 03:26:06;;;;;;;23.75;10.73;;;;;;;7.97;100.00;100299.03;5042558;28;20041;-75
2024/04/04 03:28:32;;;;;;;22.90;9.40;;;;;;;8.01;100.00;100300.81;5045667;28;20037;-74
2024/04/04 03:30:57;;;;;;;20.92;8.48;;;;;;;8.05;100.00;100302.56;5042278;28;20451;-67
2024/04/04 03:33:23;;;;;;;21.83;8.05;;;;;;;8.10;100.00;100295.59;5044758;28;20464;-75
2024/04/04 03:35:48;;;;;;;19.98;6.82;;;;;;;8.15;100.00;100285.09;5043483;28;20029;-71
2024/04/04 03:38:14;;;;;;;19.90;6.70;;;;;;;8.20;100.00;100280.75;5043283;28;20033;-67
2024/04/04 03:40:39;;;;;;;19.58;6.60;;;;;;;8.22;100.00;100278.97;5043717;28;20083;-72
2024/04/04 03:43:06;;;;;;;21.20;6.10;;;;;;;8.24;100.00;100282.47;5041373;28;20021;-66
2024/04/04 03:45:37;;;;;;;20.85;6.40;;;;;;;8.27;100.00;100276.38;5045366;28;20391;-67
2024/04/04 03:48:03;;;;;;;20.77;6.43;;;;;;;8.32;100.00;100278.16;5037187;28;20021;-66
2024/04/04 03:50:28;;;;;;;21.58;6.55;;;;;;;8.34;100.00;100273.78;5045053;28;20033;-66
2024/04/04 03:52:54;;;;;;;19.92;6.45;;;;;;;8.41;100.00;100263.28;5042418;28;20029;-66
2024/04/04 03:55:19;;;;;;;21.05;6.50;;;;;;;8.43;100.00;100264.13;5042361;28;20025;-67
2024/04/04 03:57:44;;;;;;;21.23;6.70;;;;;;;8.49;100.00;100262.47;5043510;28;20025;-66
2024/04/04 04:00:10;;;;;;;20.30;6.22;;;;;;;8.54;100.00;100252.78;5042175;28;20428;-68
2024/04/04 04:02:36;;;;;;;20.77;6.68;;;;;;;8.61;100.00;100251.06;5043678;28;20079;-72
2024/04/04 04:05:03;;;;;;;20.95;6.55;;;;;;;8.67;100.00;100239.69;5041043;28;20057;-72
2024/04/04 04:07:28;;;;;;;20.13;6.55;;;;;;;8.77;100.00;100249.34;5044841;28;20041;-67
2024/04/04 04:09:53;;;;;;;21.60;6.68;;;;;;;8.78;100.00;100248.50;5042403;28;20040;-65
2024/04/04 04:12:19;;;;;;;21.17;6.53;;;;;;;8.81;100.00;100237.94;5043312;28;20472;-65
2024/04/04 04:14:44;;;;;;;21.77;6.95;;;;;;;8.88;100.00;100244.09;5043826;28;20033;-66
2024/04/04 04:17:09;;;;;;;21.98;6.97;;;;;;;8.94;100.00;100246.78;5040669;28;20048;-66
2024/04/04 04:19:35;;;;;;;21.45;6.93;;;;;;;8.96;100.00;100238.84;5044680;28;20391;-67
2024/04/04 04:22:00;;;;;;;21.38;6.57;;;;;;;9.02;100.00;100237.09;5041695;28;20037;-66
2024/04/04 04:24:25;;;;;;;19.98;6.35;;;;;;;9.07;100.00;100230.06;5044110;28;20361;-73
2024/04/04 04:26:51;;;;;;;19.85;6.82;;;;;;;9.05;100.00;100234.44;5042343;28;20514;-66
2024/04/04 04:29:17;;;;;;;22.13;7.05;;;;;;;9.10;100.00;100236.22;5042952;28;20083;-66
2024/04/04 04:31:43;;;;;;;21.20;6.55;;;;;;;9.15;100.00;100232.72;5043283;28;20097;-66
2024/04/04 04:34:09;;;;;;;21.40;6.72;;;;;;;9.18;100.00;100234.47;5041633;28;20540;-66
2024/04/04 04:36:54;;;;;;;22.77;7.32;;;;;;;9.22;100.00;100233.59;5045284;28;20029;-71
2024/04/04 04:39:19;;;;;;;21.42;6.90;;;;;;;9.25;100.00;100229.19;5041674;28;20071;-70
2024/04/04 04:41:44;;;;;;;21.73;6.93;;;;;;;9.27;100.00;100223.91;5043996;28;20048;-67
2024/04/04 04:44:10;;;;;;;20.83;6.78;;;;;;;9.29;100.00;100219.53;5041814;28;20622;-70
2024/04/04 04:46:35;;;;;;;22.52;7.07;;;;;;;9.31;100.00;100219.53;5044923;28;20435;-73
2024/04/04 04:49:01;;;;;;;25.58;7.40;;;;;;;9.35;100.00;100213.34;5037302;28;20045;-73
2024/04/04 04:51:26;;;;;;;23.80;7.47;;;;;;;9.36;100.00;100209.84;5044011;28;20074;-70
2024/04/04 04:53:52;;;;;;;22.42;7.20;;;;;;;9.43;100.00;100212.47;5042532;28;20368;-68
2024/04/04 04:56:17;;;;;;;24.50;6.97;;;;;;;9.49;100.00;100208.94;5045013;28;20036;-69
2024/04/04 04:58:42;;;;;;;22.42;7.05;;;;;;;9.51;100.00;100208.94;5047846;28;20053;-70
2024/04/04 05:01:08;;;;;;;24.50;7.05;;;;;;;9.53;100.00;100196.66;5045645;28;20034;-76
2024/04/04 05:03:35;;;;;;;22.65;6.78;;;;;;;9.59;100.00;100201.91;5048507;28;20049;-72
2024/04/04 05:06:00;;;;;;;23.10;7.20;;;;;;;9.58;100.00;100205.41;5044068;28;20365;-74
2024/04/04 05:08:25;;;;;;;24.35;7.07;;;;;;;9.59;100.00;100191.34;5047762;28;20040;-74
2024/04/04 05:10:51;;;;;;;22.63;6.78;;;;;;;9.67;100.00;100189.59;5045160;28;20041;-70
2024/04/04 05:13:16;;;;;;;25.10;7.18;;;;;;;9.69;100.00;100181.66;5046672;28;20028;-74
2024/04/04 05:15:45;;;;;;;23.63;7.40;;;;;;;9.69;100.00;100187.81;5047775;28;20061;-74
2024/04/04 05:18:10;;;;;;;24.02;7.15;;;;;;;9.70;100.00;100184.28;5046050;28;20368;-66
2024/04/04 05:20:36;;;;;;;23.55;7.00;;;;;;;9.73;100.00;100186.91;5052892;28;20036;-67
2024/04/04 05:23:01;;;;;;;20.98;6.60;;;;;;;9.77;100.00;100186.03;5039588;28;20038;-75
2024/04/04 05:25:27;;;;;;;23.85;6.57;;;;;;;9.84;100.00;100188.66;5047352;28;20033;-76
2024/04/04 05:27:52;;;;;;;24.80;7.40;;;;;;;9.86;100.00;100181.59;5046286;28;20175;-77
2024/04/04 05:30:17;;;;;;;23.95;7.28;;;;;;;9.91;100.00;100180.69;5046610;28;20038;-76
2024/04/04 05:32:43;;;;;;;24.30;6.65;;;;;;;10.00;100.00;100179.78;5047205;28;20055;-79
2024/04/04 05:35:08;;;;;;;23.27;6.57;;;;;;;10.02;100.00;100180.66;5045649;28;20033;-78
2024/04/04 05:37:36;;;;;;;23.83;6.47;;;;;;;10.03;100.00;100179.78;5048237;28;20025;-79
2024/04/04 05:40:01;;;;;;;24.23;6.70;;;;;;;10.03;100.00;100170.97;5040779;28;20030;-75
2024/04/04 05:42:28;;;;;;;23.08;6.65;;;;;;;10.07;100.00;100168.31;5048051;28;20037;-76
2024/04/04 05:44:53;;;;;;;22.75;5.80;;;;;;;10.13;100.00;100180.63;5045316;28;20040;-73
2024/04/04 05:47:18;;;;;;;23.02;6.28;;;;;;;10.16;100.00;100166.53;5049076;28;20026;-79
2024/04/04 05:49:44;;;;;;;22.75;6.00;;;;;;;10.15;100.00;100160.38;5045292;28;20026;-75
2024/04/04 05:52:09;;;;;;;21.30;5.47;;;;;;;10.27;100.00;100175.28;5047250;28;20040;-72
2024/04/04 05:54:37;;;;;;;21.90;5.47;;;;;;;10.25;100.00;100172.66;5044328;28;20108;-71
2024/04/04 05:57:03;;;;;;;21.23;5.78;;;;;;;10.27;100.00;100175.28;5035805;28;20028;-67
2024/04/04 05:59:29;;;;;;;21.23;5.40;;;;;;;10.30;100.00;100177.91;5042207;28;20025;-67
2024/04/04 06:01:54;;;;;;;22.85;5.45;;;;;;;10.28;100.00;100164.72;5045194;28;20043;-77
2024/04/04 06:04:20;;;;;;;21.13;5.32;;;;;;;10.34;100.00;100178.78;5045478;28;20060;-75
2024/04/04 06:06:45;;;;;;;22.23;5.50;;;;;;;10.37;100.00;100170.84;5045917;28;20032;-78
2024/04/04 06:09:11;;;;;;;19.85;4.93;;;;;;;10.36;100.00;100185.81;5048619;28;20032;-79
2024/04/04 06:11:37;;;;;;;19.70;5.07;;;;;;;10.39;100.00;100175.22;5044369;28;20049;-78
2024/04/04 06:14:02;;;;;;;20.80;5.53;;;;;;;10.39;100.00;100177.88;5047957;28;20025;-80
2024/04/04 06:16:27;;;;;;;22.17;5.38;;;;;;;10.41;100.00;100186.69;5045277;28;20048;-80
2024/04/04 06:18:53;;;;;;;20.45;5.38;;;;;;;10.40;100.00;100192.00;5046744;28;20560;-81
2024/04/04 06:21:18;;;;;;;21.33;5.47;;;;;;;10.42;100.00;100185.78;5044980;28;20021;-81
2024/04/04 06:23:43;;;;;;;22.20;6.10;;;;;;;10.39;100.00;100185.81;5043979;28;20056;-82
2024/04/04 06:26:09;;;;;;;19.92;5.47;;;;;;;10.41;100.00;100184.06;5047345;28;20036;-82
2024/04/04 06:28:34;;;;;;;19.52;4.70;;;;;;;10.42;100.00;100183.13;5047449;28;20083;-82
2024/04/04 06:30:59;;;;;;;20.10;4.70;;;;;;;10.45;100.00;100191.03;5043734;28;20026;-82
2024/04/04 06:33:25;;;;;;;18.45;4.55;;;;;;;10.42;100.00;100188.44;5045971;28;20029;-82
2024/04/04 06:35:50;;;;;;;17.30;4.13;;;;;;;10.45;100.00;100185.75;5045320;28;20029;-82
2024/04/04 06:38:15;;;;;;;20.25;4.70;;;;;;;10.46;100.00;100182.25;5044871;28;20076;-83
2024/04/04 06:40:41;;;;;;;20.13;4.53;;;;;;;10.45;100.00;100183.13;5046245;28;20029;-69
2024/04/04 06:43:06;;;;;;;19.77;4.70;;;;;;;10.48;100.00;100205.16;5044075;28;20048;-85
2024/04/04 06:45:31;;;;;;;20.70;4.95;;;;;;;10.47;100.00;100191.06;5039805;28;20164;-85
2024/04/04 06:47:57;;;;;;;20.33;4.85;;;;;;;10.43;100.00;100184.91;5047387;28;20460;-83
2024/04/04 06:50:25;;;;;;;21.73;5.53;;;;;;;10.41;100.00;100186.69;5045975;28;20145;-86
2024/04/04 06:52:50;;;;;;;18.75;4.90;;;;;;;10.41;100.00;100183.16;5045500;28;20426;-86
2024/04/04 06:55:16;;;;;;;20.27;4.63;;;;;;;10.41;100.00;100189.34;5045602;28;20112;-80
2024/04/04 06:57:41;;;;;;;20.73;4.68;;;;;;;10.46;100.00;100182.25;5046009;28;20029;-79
2024/04/04 07:00:09;;;;;;;19.58;5.03;;;;;;;10.42;100.00;100179.63;5044005;28;20030;-78
2024/04/04 07:02:35;;;;;;;20.15;4.93;;;;;;;10.39;100.00;100184.94;5039392;28;20032;-92
2024/04/04 07:05:00;;;;;;;20.67;4.80;;;;;;;10.35;100.00;100176.13;5046245;28;20140;-90
2024/04/04 07:07:26;;;;;;;19.67;5.13;;;;;;;10.37;100.00;100184.94;5043555;28;20482;-90
2024/04/04 07:09:51;;;;;;;19.30;5.00;;;;;;;10.35;100.00;100184.06;5044959;28;20501;-75
2024/04/04 07:12:16;;;;;;;18.63;4.65;;;;;;;10.35;100.00;100186.69;5044891;28;20087;-68
2024/04/04 07:14:42;;;;;;;20.42;4.78;;;;;;;10.35;100.00;100191.13;5043750;28;20444;-68
2024/04/04 07:17:07;;;;;;;19.98;4.90;;;;;;;10.36;100.00;100184.97;5046206;28;20491;-71
2024/04/04 07:19:33;;;;;;;19.63;4.57;;;;;;;10.38;100.00;100192.00;5041726;28;20033;-67
2024/04/04 07:21:58;;;;;;;20.80;4.38;;;;;;;10.37;100.00;100176.13;5045668;28;20048;-86
2024/04/04 07:24:23;;;;;;;18.83;4.60;;;;;;;10.36;100.00;100169.97;5043701;28;20086;-86
2024/04/04 07:26:48;;;;;;;20.00;5.10;;;;;;;10.36;100.00;100175.25;5044158;28;20041;-87
2024/04/04 07:29:14;;;;;;;18.67;4.75;;;;;;;10.38;100.00;100177.88;5045058;28;20052;-81
2024/04/04 07:31:40;;;;;;;19.48;4.80;;;;;;;10.37;100.00;100177.03;5043137;28;20032;-87
2024/04/04 07:34:05;;;;;;;19.00;4.40;;;;;;;10.38;100.00;100172.59;5045760;28;20061;-72
2024/04/04 07:36:31;;;;;;;19.08;4.50;;;;;;;10.36;100.00;100169.09;5041109;28;20100;-69
2024/04/04 07:38:56;;;;;;;16.60;4.20;;;;;;;10.35;100.00;100157.63;5044841;28;20437;-86
2024/04/04 07:41:21;;;;;;;20.23;4.70;;;;;;;10.36;100.00;100169.09;5043803;28;20078;-82
2024/04/04 07:43:47;;;;;;;18.23;4.28;;;;;;;10.38;100.00;100168.22;5044769;28;20451;-82
2024/04/04 07:46:14;;;;;;;19.02;4.60;;;;;;;10.33;100.00;100185.81;5046357;28;20033;-76
2024/04/04 07:48:42;;;;;;;18.58;4.75;;;;;;;10.35;100.00;100186.69;5042055;28;20075;-68
2024/04/04 07:51:09;;;;;;;15.52;3.85;;;;;;;10.36;100.00;100190.25;5046206;28;20103;-68
2024/04/04 07:53:34;;;;;;;18.42;4.50;;;;;;;10.34;100.00;100203.47;5042468;28;20088;-68
2024/04/04 07:56:00;;;;;;;17.15;4.28;;;;;;;10.35;100.00;100204.31;5044736;28;20032;-69
2024/04/04 07:58:26;;;;;;;17.02;4.13;;;;;;;10.35;100.00;100210.47;5043723;28;20046;-69
2024/04/04 08:00:52;;;;;;;17.42;4.45;;;;;;;10.35;100.00;100207.84;5045210;28;20033;-67
2024/04/04 08:03:18;;;;;;;18.60;4.20;;;;;;;10.34;100.00;100221.97;5044594;28;20376;-86
2024/04/04 08:05:43;;;;;;;17.63;4.40;;;;;;;10.37;100.00;100216.66;5043004;28;20029;-86
2024/04/04 08:08:10;;;;;;;17.95;4.40;;;;;;;10.36;100.00;100216.66;5037932;28;20133;-86
2024/04/04 08:10:35;;;;;;;17.15;4.20;;;;;;;10.38;100.00;100209.59;5043014;28;20057;-85
2024/04/04 08:13:01;;;;;;;18.48;4.50;;;;;;;10.40;100.00;100215.78;5046155;28;20036;-87
2024/04/04 08:15:27;;;;;;;15.90;4.20;;;;;;;10.43;100.00;100218.38;5042551;28;20021;-77
2024/04/04 08:17:52;;;;;;;16.75;4.47;;;;;;;10.44;100.00;100226.31;5045313;28;20503;-86
2024/04/04 08:20:18;;;;;;;17.92;4.55;;;;;;;10.48;100.00;100208.66;5040786;28;20029;-83
2024/04/04 08:22:46;;;;;;;18.05;4.65;;;;;;;10.52;100.00;100231.53;5044388;28;20040;-87
2024/04/04 08:25:13;;;;;;;17.40;3.97;;;;;;;10.53;100.00;100245.63;5046615;28;20036;-87
2024/04/04 08:27:38;;;;;;;17.60;4.50;;;;;;;10.51;100.00;100257.97;5043397;28;20041;-81
2024/04/04 08:30:05;;;;;;;17.23;4.40;;;;;;;10.53;100.00;100262.38;5045442;28;20388;-82
2024/04/04 08:32:31;;;;;;;15.50;4.10;;;;;;;10.57;100.00;100247.38;5041177;28;20037;-69
2024/04/04 08:34:57;;;;;;;17.58;4.60;;;;;;;10.63;100.00;100242.06;5044523;28;20021;-69
2024/04/04 08:37:23;;;;;;;16.98;4.75;;;;;;;10.71;100.00;100237.59;5042139;28;20044;-69
2024/04/04 08:39:48;;;;;;;17.20;4.63;;;;;;;10.78;100.00;100238.47;5043135;28;20032;-72
2024/04/04 08:42:14;;;;;;;17.38;4.20;;;;;;;10.77;100.00;100240.19;5042849;28;20040;-68
2024/04/04 08:44:42;;;;;;;18.05;4.70;;;;;;;10.81;100.00;100247.22;5042567;28;20057;-84
2024/04/04 08:47:17;;;;;;;14.73;4.30;;;;;;;10.82;100.00;100251.66;5044248;28;20033;-84
2024/04/04 08:49:46;;;;;;;16.45;4.40;;;;;;;10.89;100.00;100259.53;5042693;28;20033;-75
2024/04/04 08:52:13;;;;;;;14.68;4.60;;;;;;;10.89;100.00;100257.78;5043456;28;20029;-83
2024/04/04 08:54:38;;;;;;;15.20;4.43;;;;;;;10.96;100.00;100255.97;5042002;28;20029;-82
2024/04/04 08:57:05;;;;;;;15.75;4.18;;;;;;;10.95;100.00;100257.75;5044965;28;20032;-74
2024/04/04 08:59:30;;;;;;;15.48;4.35;;;;;;;10.98;100.00;100264.78;5041266;28;20045;-80
2024/04/04 09:01:55;;;;;;;13.30;3.90;;;;;;;11.05;100.00;100266.47;5044412;28;20025;-78
2024/04/04 09:04:24;;;;;;;14.50;4.15;;;;;;;11.09;100.00;100260.28;5042091;28;20451;-84
2024/04/04 09:06:50;;;;;;;14.57;4.22;;;;;;;11.14;100.00;100262.91;5039539;28;20056;-69
2024/04/04 09:09:15;;;;;;;18.23;4.40;;;;;;;11.13;100.00;100266.44;5043930;28;20021;-77
2024/04/04 09:11:41;;;;;;;14.43;3.72;;;;;;;11.19;100.00;100253.16;5041181;28;20053;-71
2024/04/04 09:14:09;;;;;;;14.50;3.60;;;;;;;11.23;100.00;100265.47;5044186;28;20032;-73
2024/04/04 09:16:45;;;;;;;14.27;3.60;;;;;;;11.31;100.00;100255.72;5041787;28;20068;-78
2024/04/04 09:19:16;;;;;;;12.20;3.10;;;;;;;11.36;100.00;100254.78;5037638;28;20045;-70
2024/04/04 09:21:44;;;;;;;13.75;3.10;;;;;;;11.36;100.00;100249.50;5034833;28;20107;-77
2024/04/04 09:24:19;;;;;;;10.27;2.70;;;;;;;11.40;100.00;100268.00;5041200;28;20168;-68
2024/04/04 09:26:46;;;;;;;11.25;2.80;;;;;;;11.41;100.00;100248.56;5041936;28;20028;-68
2024/04/04 09:29:12;;;;;;;10.10;2.70;;;;;;;11.38;100.00;100258.31;5039817;28;20358;-68
2024/04/04 09:31:39;;;;;;;9.57;2.60;;;;;;;11.34;100.00;100262.72;5036847;28;20036;-68
2024/04/04 09:34:05;;;;;;;9.32;2.30;;;;;;;11.33;100.00;100245.13;5040821;28;20037;-68
2024/04/04 09:36:36;;;;;;;8.25;2.40;;;;;;;11.52;100.00;100261.72;5043530;28;20021;-68
2024/04/04 09:39:07;;;;;;;7.93;2.40;;;;;;;11.41;100.00;100261.78;5041655;28;20032;-68
2024/04/04 09:41:33;;;;;;;7.85;2.55;;;;;;;11.30;100.00;100276.88;5044058;28;20037;-76
2024/04/04 09:43:58;;;;;;;7.57;2.25;;;;;;;11.25;100.00;100257.53;5045488;28;20043;-78
2024/04/04 09:46:25;;;;;;;7.32;2.40;;;;;;;11.31;100.00;100258.38;5046249;28;20034;-81
2024/04/04 09:48:54;;;;;;;8.82;2.40;;;;;;;11.35;100.00;100277.72;5046559;28;20033;-79
2024/04/04 09:51:25;;;;;;;7.40;2.45;;;;;;;11.64;100.00;100276.63;5048123;28;20032;-68
2024/04/04 09:53:51;;;;;;;7.78;2.45;;;;;;;11.84;100.00;100273.78;5045204;28;20044;-71
2024/04/04 09:56:19;;;;;;;6.55;2.40;;;;;;;12.04;100.00;100270.94;5046686;28;20032;-68
2024/04/04 09:58:45;;;;;;;6.80;2.28;;;;;;;12.30;100.00;100256.53;5044222;28;20033;-68
2024/04/04 10:01:23;;;;;;;7.28;2.30;;;;;;;12.73;100.00;100256.84;5043614;28;20022;-75
2024/04/04 10:03:58;;;;;;;7.97;2.25;;;;;;;13.35;100.00;100257.72;5040737;28;20400;-71
2024/04/04 10:06:37;;;;;;;8.52;2.35;;;;;;;13.91;100.00;100245.22;5045519;28;20044;-72
2024/04/04 10:09:23;;;;;;;8.00;2.20;;;;;;;14.00;100.00;100254.81;5045026;28;20029;-71
2024/04/04 10:11:50;;;;;;;7.78;2.20;;;;;;;13.74;100.00;100242.88;5041569;28;20065;-68
2024/04/04 10:14:19;;;;;;;7.55;2.05;;;;;;;13.65;100.00;100252.81;5046524;28;20552;-69
2024/04/04 10:16:47;;;;;;;7.43;2.28;;;;;;;13.57;100.00;100252.94;5043777;28;20072;-68
2024/04/04 10:19:17;;;;;;;9.20;2.30;;;;;;;13.47;100.00;100257.53;5043341;28;20030;-69
2024/04/04 10:21:43;;;;;;;6.97;2.00;;;;;;;13.88;100.00;100250.59;5040037;28;20029;-72
2024/04/04 10:24:17;;;;;;;7.45;2.20;;;;;;;14.30;100.00;100255.13;5039503;28;20388;-75
2024/04/04 10:26:50;;;;;;;6.20;2.17;;;;;;;14.25;100.00;100260.50;5038874;28;20464;-80
2024/04/04 10:29:15;;;;;;;5.88;2.03;;;;;;;14.58;100.00;100247.44;5046323;28;20021;-69
2024/04/04 10:31:40;;;;;;;5.22;1.92;;;;;;;14.62;100.00;100243.84;5043198;28;20120;-70
2024/04/04 10:34:09;;;;;;;7.60;2.00;;;;;;;15.07;100.00;100282.75;5046549;28;20025;-70
2024/04/04 10:36:38;;;;;;;7.85;2.00;;;;;;;15.58;100.00;100257.56;5043598;28;20527;-68
2024/04/04 10:39:16;;;;;;;8.07;2.10;;;;;;;16.08;100.00;100246.47;5046030;28;20037;-68
2024/04/04 10:41:43;;;;;;;8.52;2.28;;;;;;;16.02;100.00;100252.84;5039842;28;20095;-68
2024/04/04 10:44:19;;;;;;;7.35;2.05;;;;;;;15.59;100.00;100275.25;5039436;28;20112;-68
2024/04/04 10:46:52;;;;;;;6.93;2.00;;;;;;;15.76;100.00;100253.53;5040194;28;20030;-68
2024/04/04 10:49:19;;;;;;;6.05;1.80;;;;;;;16.78;100.00;100268.50;5045860;28;20033;-69
2024/04/04 10:51:54;;;;;;;8.27;1.88;;;;;;;16.65;100.00;100273.31;5043047;28;20033;-69
2024/04/04 10:54:20;;;;;;;8.95;2.20;;;;;;;16.67;100.00;100275.03;5044331;28;20052;-68
2024/04/04 10:56:47;;;;;;;4.80;2.03;;;;;;;16.64;100.00;100269.75;5043133;28;20116;-68
2024/04/04 10:59:15;;;;;;;10.15;2.20;;;;;;;16.92;100.00;100266.31;5045264;28;20037;-68
2024/04/04 11:01:41;;;;;;;11.15;2.13;;;;;;;16.31;100.00;100306.28;5039198;28;20080;-75
2024/04/04 11:04:10;;;;;;;12.52;2.20;;;;;;;16.72;100.00;100281.09;5045492;28;20434;-70
2024/04/04 11:06:35;;;;;;;10.00;2.30;;;;;;;17.48;100.00;100276.06;5041759;28;20442;-68
2024/04/04 11:09:04;;;;;;;9.95;2.20;;;;;;;16.14;100.00;100288.09;5045162;28;20034;-71
2024/04/04 11:11:29;;;;;;;12.00;2.10;;;;;;;16.02;100.00;100268.84;5044030;28;20025;-74